Time;durP1;ratioP1;P1;durP2;ratioP2;P2;SDS_P1;SDS_P2;PMS_P1;PMS_P2;Temp;Humidity;BMP_temperature;BMP_pressure;BME280_temperature;BME280_humidity;BME280_pressure;Samples;Min_cycle;Max_cycle;Signal;HPM_P1;HPM_P2
2022/02/13 00:02:08;;;;;;;8.80;6.70;;;;;;;3.32;69.01;101206.89;2911352;81;21308;-74
2022/02/13 00:06:09;;;;;;;8.35;6.12;;;;;;;3.29;68.83;101204.78;2918498;81;21053;-75
2022/02/13 00:10:13;;;;;;;10.50;6.50;;;;;;;3.31;68.86;101190.71;2930999;80;21042;-75
2022/02/13 00:14:14;;;;;;;11.35;7.65;;;;;;;3.23;69.11;101185.29;2949956;80;21011;-75
2022/02/13 00:18:16;;;;;;;9.00;6.22;;;;;;;3.28;69.16;101182.50;2958869;80;21026;-74
2022/02/13 00:22:19;;;;;;;9.38;6.50;;;;;;;3.21;68.97;101173.97;2958666;80;21034;-74
2022/02/13 00:26:20;;;;;;;12.00;6.50;;;;;;;3.18;69.33;101167.52;2958596;80;20956;-75
2022/02/13 00:30:22;;;;;;;9.10;6.47;;;;;;;3.13;69.18;101167.67;2948408;80;21022;-74
2022/02/13 00:34:23;;;;;;;10.98;5.35;;;;;;;3.17;69.04;101155.29;2945863;80;21527;-74
2022/02/13 00:38:25;;;;;;;7.20;5.17;;;;;;;3.12;69.06;101151.95;2927905;80;21531;-74
2022/02/13 00:42:27;;;;;;;9.98;5.83;;;;;;;3.19;68.85;101160.03;2933183;80;21031;-75
2022/02/13 00:46:29;;;;;;;7.65;6.67;;;;;;;3.10;68.85;101152.46;2922754;80;21101;-74
2022/02/13 00:50:34;;;;;;;11.30;7.53;;;;;;;3.13;68.84;101151.03;2913018;80;21062;-75
2022/02/13 00:54:38;;;;;;;9.20;5.67;;;;;;;3.19;68.57;101145.56;2908625;79;21561;-74
2022/02/13 00:58:41;;;;;;;8.43;5.70;;;;;;;3.20;68.60;101145.97;2931474;80;21494;-74
2022/02/13 01:02:42;;;;;;;7.03;5.15;;;;;;;3.21;68.75;101149.44;2937027;80;21018;-74
2022/02/13 01:06:44;;;;;;;10.40;5.22;;;;;;;3.27;68.46;101142.18;2919629;79;21090;-74
2022/02/13 01:10:46;;;;;;;7.72;5.35;;;;;;;3.22;68.80;101134.06;2925781;79;20953;-74
2022/02/13 01:14:47;;;;;;;10.68;6.53;;;;;;;3.22;68.75;101128.36;2927156;80;21058;-75
2022/02/13 01:18:49;;;;;;;11.53;5.92;;;;;;;3.26;68.47;101124.69;2887418;81;21492;-75
2022/02/13 01:22:50;;;;;;;11.00;5.55;;;;;;;3.32;68.54;101113.53;2799919;85;21080;-74
2022/02/13 01:26:52;;;;;;;9.35;5.42;;;;;;;3.39;68.58;101112.40;2817390;84;21043;-74
2022/02/13 01:31:00;;;;;;;8.50;6.30;;;;;;;3.36;68.43;101104.63;2803469;84;21536;-74
2022/02/13 01:34:57;;;;;;;6.53;5.03;;;;;;;3.40;68.48;101095.22;2888060;81;21008;-74
2022/02/13 01:38:59;;;;;;;10.03;5.30;;;;;;;3.26;69.18;101085.72;2807504;84;20993;-74
2022/02/13 01:43:01;;;;;;;20.65;9.80;;;;;;;3.17;69.20;101082.11;2817777;84;21028;-74
2022/02/13 01:47:04;;;;;;;8.43;5.60;;;;;;;3.22;68.93;101078.39;2800989;85;21089;-74
2022/02/13 01:51:07;;;;;;;9.53;6.40;;;;;;;3.18;68.67;101066.73;2814594;84;21103;-75
2022/02/13 01:55:10;;;;;;;9.15;5.72;;;;;;;3.30;68.58;101063.64;2910089;80;21009;-75
2022/02/13 01:59:12;;;;;;;5.75;4.83;;;;;;;3.27;68.64;101055.40;2910907;81;21034;-75
2022/02/13 02:03:14;;;;;;;10.48;5.53;;;;;;;3.28;68.66;101051.02;2912611;81;20999;-75
2022/02/13 02:07:16;;;;;;;6.30;4.47;;;;;;;3.36;68.17;101048.09;2911615;81;21045;-74
2022/02/13 02:11:17;;;;;;;8.43;5.58;;;;;;;3.38;68.18;101042.30;2911130;81;20975;-74
2022/02/13 02:15:19;;;;;;;6.17;5.58;;;;;;;3.33;68.61;101039.84;2912413;81;21534;-74
2022/02/13 02:19:20;;;;;;;10.88;6.00;;;;;;;3.21;68.91;101034.61;2912552;81;20952;-75
2022/02/13 02:23:22;;;;;;;15.88;5.42;;;;;;;3.25;68.89;101034.05;2906040;81;21479;-75
2022/02/13 02:27:24;;;;;;;6.25;4.87;;;;;;;3.17;68.91;101026.89;2926031;80;21062;-75
2022/02/13 02:31:25;;;;;;;7.95;5.80;;;;;;;3.13;69.20;101015.63;2916845;80;21082;-74
2022/02/13 02:35:27;;;;;;;6.80;5.33;;;;;;;3.13;68.78;101007.75;2912371;81;20966;-74
2022/02/13 02:39:29;;;;;;;7.83;5.40;;;;;;;3.08;69.01;100998.75;2909462;81;21019;-74
2022/02/13 02:43:30;;;;;;;4.85;4.35;;;;;;;3.15;69.19;100998.05;2912294;81;21061;-74
2022/02/13 02:47:33;;;;;;;10.28;5.78;;;;;;;3.04;69.32;100995.81;2912305;81;21542;-75
2022/02/13 02:51:34;;;;;;;6.33;4.60;;;;;;;3.10;69.35;100985.52;2909998;80;21009;-75
2022/02/13 02:55:36;;;;;;;11.55;6.50;;;;;;;3.07;69.16;100979.95;2907130;81;21544;-75
2022/02/13 02:59:38;;;;;;;6.33;5.67;;;;;;;3.13;69.04;100973.57;2906967;81;21005;-75
2022/02/13 03:03:39;;;;;;;7.85;5.22;;;;;;;3.11;69.17;100977.59;2907068;80;21544;-75
2022/02/13 03:07:41;;;;;;;9.90;6.12;;;;;;;3.04;69.41;100974.79;2907105;80;21587;-75
2022/02/13 03:11:43;;;;;;;7.47;5.37;;;;;;;3.08;69.09;100962.39;2915010;81;20948;-75
2022/02/13 03:15:44;;;;;;;7.83;5.10;;;;;;;3.02;69.00;100960.02;2910706;81;20964;-75
2022/02/13 03:19:46;;;;;;;5.05;4.17;;;;;;;3.01;69.04;100956.52;2807234;84;21612;-75
2022/02/13 03:23:47;;;;;;;5.53;4.42;;;;;;;3.03;68.95;100945.95;2887762;81;20968;-75
2022/02/13 03:27:49;;;;;;;7.87;5.58;;;;;;;2.92;69.05;100944.59;2857605;80;21042;-75
2022/02/13 03:31:50;;;;;;;5.83;4.85;;;;;;;2.99;68.82;100942.14;2846800;83;21009;-75
2022/02/13 03:35:52;;;;;;;6.47;5.03;;;;;;;2.99;68.92;100939.51;2849572;83;21549;-75
2022/02/13 03:39:54;;;;;;;5.42;4.75;;;;;;;2.98;68.88;100931.23;2849657;83;21096;-74
2022/02/13 03:43:55;;;;;;;8.78;5.12;;;;;;;3.05;68.76;100929.66;2855584;82;21053;-75
2022/02/13 03:47:57;;;;;;;7.37;5.53;;;;;;;3.04;68.66;100935.83;2867804;82;21512;-75
2022/02/13 03:51:59;;;;;;;10.85;5.85;;;;;;;2.97;68.64;100928.64;2927832;80;21011;-75
2022/02/13 03:56:01;;;;;;;7.75;4.30;;;;;;;3.00;68.58;100920.63;2926441;80;21029;-75
2022/02/13 04:00:05;;;;;;;10.20;5.95;;;;;;;3.07;68.39;100915.98;2946414;80;20981;-75
2022/02/13 04:04:09;;;;;;;7.33;4.95;;;;;;;3.04;68.29;100901.66;2946790;80;21076;-75
2022/02/13 04:08:10;;;;;;;6.87;5.10;;;;;;;3.00;68.32;100892.59;2924960;81;20961;-75
2022/02/13 04:12:12;;;;;;;5.83;4.78;;;;;;;3.02;68.32;100894.30;2947473;80;20997;-75
2022/02/13 04:16:14;;;;;;;7.05;5.72;;;;;;;3.07;68.38;100893.20;2928452;80;20987;-75
2022/02/13 04:20:15;;;;;;;12.55;5.25;;;;;;;3.07;68.23;100897.59;2928236;80;21065;-74
2022/02/13 04:24:17;;;;;;;6.72;5.08;;;;;;;3.11;68.25;100884.27;2945911;80;21050;-74
2022/02/13 04:28:19;;;;;;;9.35;5.00;;;;;;;3.03;68.41;100881.55;2819698;83;20970;-75
2022/02/13 04:32:21;;;;;;;5.47;4.90;;;;;;;2.97;68.47;100875.64;2821386;83;21597;-75
2022/02/13 04:36:23;;;;;;;9.80;6.85;;;;;;;2.94;68.43;100867.84;2939492;80;21000;-75
2022/02/13 04:40:24;;;;;;;12.30;7.25;;;;;;;2.98;68.34;100865.96;2907344;81;20972;-75
2022/02/13 04:44:26;;;;;;;41.35;8.78;;;;;;;2.94;68.34;100859.97;2946290;80;20955;-75
2022/02/13 04:48:28;;;;;;;10.03;5.12;;;;;;;2.95;68.59;100857.77;2946567;80;20999;-75
2022/02/13 04:52:29;;;;;;;7.28;6.03;;;;;;;2.97;68.34;100850.67;2945577;80;21031;-75
2022/02/13 04:56:31;;;;;;;10.08;8.05;;;;;;;2.92;68.15;100854.39;2930230;80;21007;-75
2022/02/13 05:00:33;;;;;;;14.58;7.58;;;;;;;2.84;68.47;100837.63;2833732;83;21047;-75
2022/02/13 05:04:35;;;;;;;12.63;6.10;;;;;;;2.88;68.43;100838.36;2922805;80;21076;-75
2022/02/13 05:08:37;;;;;;;13.60;7.47;;;;;;;2.90;68.45;100837.84;2915831;80;21019;-75
2022/02/13 05:12:38;;;;;;;6.00;5.33;;;;;;;2.96;68.32;100832.32;2955586;80;20956;-75
2022/02/13 05:16:40;;;;;;;9.38;6.10;;;;;;;2.89;68.31;100823.83;2933253;79;21487;-74
2022/02/13 05:20:42;;;;;;;11.83;6.08;;;;;;;2.85;68.42;100820.49;2948086;80;20999;-75
2022/02/13 05:24:45;;;;;;;10.38;6.25;;;;;;;2.88;68.33;100825.22;2941256;80;21037;-75
2022/02/13 05:28:47;;;;;;;6.97;5.60;;;;;;;2.88;68.37;100814.23;2825509;83;21010;-75
2022/02/13 05:32:49;;;;;;;10.65;7.08;;;;;;;2.84;68.34;100819.23;2910025;81;21001;-75
2022/02/13 05:36:50;;;;;;;12.68;7.30;;;;;;;2.88;68.12;100818.18;2925277;80;21535;-75
2022/02/13 05:40:52;;;;;;;9.60;6.45;;;;;;;2.88;68.17;100815.55;2941794;80;21268;-74
2022/02/13 05:44:54;;;;;;;6.72;6.05;;;;;;;2.85;68.07;100813.92;2836999;83;21088;-74
2022/02/13 05:48:57;;;;;;;6.37;5.85;;;;;;;2.89;67.81;100813.31;2830618;83;21059;-75
2022/02/13 05:52:59;;;;;;;7.45;5.62;;;;;;;2.95;67.87;100817.03;2820850;84;21068;-75
2022/02/13 05:57:01;;;;;;;10.18;7.10;;;;;;;2.86;68.26;100814.77;2813172;84;20970;-75
2022/02/13 06:01:03;;;;;;;8.23;6.22;;;;;;;2.80;68.30;100805.83;2822888;83;21019;-75
2022/02/13 06:05:05;;;;;;;8.00;5.37;;;;;;;2.84;68.23;100808.72;2820273;82;21532;-71
2022/02/13 06:09:07;;;;;;;9.13;7.55;;;;;;;2.84;68.37;100806.09;2818891;84;21055;-71
2022/02/13 06:13:08;;;;;;;11.20;6.08;;;;;;;2.87;68.09;100815.63;2799720;83;21024;-71
2022/02/13 06:17:10;;;;;;;12.30;7.60;;;;;;;2.79;68.02;100810.22;2918044;81;21511;-71
2022/02/13 06:21:12;;;;;;;9.65;6.75;;;;;;;2.87;68.08;100809.90;2928474;81;21435;-71
2022/02/13 06:25:14;;;;;;;10.85;6.08;;;;;;;2.84;68.12;100802.16;2917444;81;21048;-71
2022/02/13 06:29:17;;;;;;;7.75;5.45;;;;;;;2.86;68.10;100802.94;2917686;81;21055;-72
2022/02/13 06:33:19;;;;;;;10.13;7.15;;;;;;;2.89;68.19;100806.75;2917645;81;21057;-71
2022/02/13 06:37:21;;;;;;;9.30;6.00;;;;;;;2.92;68.37;100799.20;2922162;81;21516;-71
2022/02/13 06:41:22;;;;;;;20.37;9.43;;;;;;;2.91;68.25;100806.22;2927434;81;21059;-72
2022/02/13 06:45:24;;;;;;;10.90;8.23;;;;;;;2.93;68.56;100800.44;2928327;81;21050;-71
2022/02/13 06:49:26;;;;;;;7.83;6.70;;;;;;;2.95;68.52;100803.89;2922678;81;21098;-72
2022/02/13 06:53:28;;;;;;;12.85;6.10;;;;;;;2.98;68.60;100807.70;2789734;84;21080;-71
2022/02/13 06:57:29;;;;;;;19.95;10.00;;;;;;;2.97;68.87;100810.37;2892696;81;21027;-72
2022/02/13 07:01:31;;;;;;;12.60;7.70;;;;;;;3.00;69.06;100809.80;2893258;82;21410;-72
2022/02/13 07:05:33;;;;;;;16.10;10.85;;;;;;;3.02;69.22;100818.08;2895222;81;21098;-72
2022/02/13 07:09:35;;;;;;;10.38;7.60;;;;;;;3.03;69.68;100813.22;2888839;81;21067;-72
2022/02/13 07:13:37;;;;;;;12.60;8.68;;;;;;;3.03;69.64;100807.95;2785581;85;21130;-72
2022/02/13 07:17:39;;;;;;;12.03;7.25;;;;;;;3.05;69.59;100804.80;2887848;82;21016;-72
2022/02/13 07:21:41;;;;;;;11.93;6.60;;;;;;;3.07;69.61;100802.95;2786405;85;21014;-72
2022/02/13 07:25:42;;;;;;;6.28;4.90;;;;;;;3.11;69.53;100800.59;2887637;82;21070;-72
2022/02/13 07:29:44;;;;;;;9.80;7.28;;;;;;;3.09;68.99;100798.05;2888303;80;21410;-72
2022/02/13 07:33:46;;;;;;;7.50;5.65;;;;;;;3.18;69.01;100801.19;2867492;82;21523;-72
2022/02/13 07:37:48;;;;;;;11.83;6.72;;;;;;;3.33;68.59;100798.34;2857018;82;20989;-72
2022/02/13 07:41:50;;;;;;;13.15;7.75;;;;;;;3.39;68.01;100792.84;2886964;82;21075;-72
2022/02/13 07:45:51;;;;;;;8.85;6.45;;;;;;;3.50;67.99;100793.69;2887714;82;21559;-72
2022/02/13 07:49:53;;;;;;;11.68;7.40;;;;;;;3.66;67.82;100797.80;2884903;82;21640;-72
2022/02/13 07:53:55;;;;;;;10.05;7.83;;;;;;;3.82;67.75;100804.08;2899444;81;21567;-72
2022/02/13 07:57:56;;;;;;;14.18;9.00;;;;;;;3.98;67.06;100803.39;2906530;81;21049;-72
2022/02/13 08:02:00;;;;;;;10.53;8.03;;;;;;;4.14;66.99;100799.13;2906270;81;21052;-72
2022/02/13 08:06:04;;;;;;;10.13;7.53;;;;;;;4.22;65.26;100800.53;2907884;80;21633;-72
2022/02/13 08:10:07;;;;;;;7.58;5.80;;;;;;;4.40;64.61;100800.98;2899138;81;21023;-73
2022/02/13 08:14:09;;;;;;;8.70;6.78;;;;;;;4.53;64.84;100792.50;2800050;85;21101;-73
2022/02/13 08:18:14;;;;;;;9.03;6.70;;;;;;;4.73;64.92;100799.89;2816855;82;21019;-73
2022/02/13 08:22:16;;;;;;;11.40;5.78;;;;;;;4.83;64.38;100796.72;2813239;84;21053;-73
2022/02/13 08:26:19;;;;;;;7.72;6.55;;;;;;;4.99;63.15;100795.48;2828565;84;20979;-72
2022/02/13 08:30:21;;;;;;;7.78;6.87;;;;;;;5.12;63.70;100794.88;2819519;83;21012;-73
2022/02/13 08:34:24;;;;;;;9.33;6.53;;;;;;;5.19;62.50;100790.98;2801389;84;21088;-73
2022/02/13 08:38:26;;;;;;;10.68;6.53;;;;;;;5.35;62.67;100783.60;2795382;84;21045;-73
2022/02/13 08:42:27;;;;;;;11.45;6.72;;;;;;;5.52;62.50;100776.98;2782789;85;21003;-73
2022/02/13 08:46:29;;;;;;;8.73;5.83;;;;;;;5.58;62.04;100776.64;2785630;83;21011;-73
2022/02/13 08:50:32;;;;;;;10.98;7.60;;;;;;;5.56;61.24;100768.41;2861475;82;21082;-71
2022/02/13 08:54:33;;;;;;;8.73;5.62;;;;;;;5.63;62.04;100761.02;2829810;83;21011;-71
2022/02/13 08:58:35;;;;;;;10.20;5.53;;;;;;;5.66;62.12;100749.84;2833978;82;21043;-72
2022/02/13 09:02:37;;;;;;;9.28;8.30;;;;;;;5.69;62.17;100752.31;2867603;81;20998;-71
2022/02/13 09:06:39;;;;;;;10.28;8.03;;;;;;;5.79;62.09;100751.34;2814495;83;20980;-72
2022/02/13 09:10:40;;;;;;;20.15;12.47;;;;;;;5.77;61.46;100745.30;2806873;83;21043;-70
2022/02/13 09:14:42;;;;;;;17.67;9.28;;;;;;;5.87;60.51;100749.61;2770057;85;21015;-71
2022/02/13 09:18:44;;;;;;;11.25;7.97;;;;;;;6.07;61.18;100741.92;2820702;83;21585;-71
2022/02/13 09:22:46;;;;;;;13.15;8.05;;;;;;;6.11;60.11;100739.52;2862943;81;21050;-71
2022/02/13 09:26:48;;;;;;;12.80;8.48;;;;;;;6.27;60.10;100739.95;2808235;84;21088;-71
2022/02/13 09:30:50;;;;;;;11.73;7.65;;;;;;;6.29;59.92;100739.42;2843554;81;21082;-72
2022/02/13 09:34:51;;;;;;;11.45;8.45;;;;;;;6.38;59.97;100724.35;2832515;83;21098;-76
2022/02/13 09:42:52;;;;;;;12.20;7.92;;;;;;;6.47;59.05;100719.46;2926678;79;22569;-75
2022/02/13 09:46:53;;;;;;;13.88;7.15;;;;;;;6.45;59.40;100717.38;2876088;81;21045;-74
2022/02/13 09:50:58;;;;;;;9.35;7.17;;;;;;;6.50;59.14;100724.11;2907252;81;20986;-74
2022/02/13 09:55:02;;;;;;;9.33;6.78;;;;;;;6.56;59.42;100713.66;2906747;81;21022;-74
2022/02/13 09:59:10;;;;;;;10.98;6.62;;;;;;;6.61;59.04;100704.98;2900270;81;21569;-74
2022/02/13 10:03:16;;;;;;;10.95;6.80;;;;;;;6.74;59.58;100713.53;2901616;81;21586;-75
2022/02/13 10:07:18;;;;;;;10.58;7.92;;;;;;;6.78;58.64;100709.75;2901819;81;21033;-74
2022/02/13 10:11:29;;;;;;;9.30;6.90;;;;;;;6.82;58.04;100708.63;2912105;81;21064;-74
2022/02/13 10:15:33;;;;;;;12.15;8.73;;;;;;;6.90;58.60;100713.00;2903897;81;21588;-75
2022/02/13 10:19:37;;;;;;;7.53;6.17;;;;;;;7.05;60.02;100701.97;2901784;81;21081;-74
2022/02/13 10:23:39;;;;;;;9.25;5.87;;;;;;;7.15;58.59;100707.55;2900980;81;21018;-78
2022/02/13 10:27:50;;;;;;;7.42;6.00;;;;;;;7.12;58.06;100684.77;2888975;81;21653;-78
2022/02/13 10:31:52;;;;;;;8.10;6.50;;;;;;;7.20;58.46;100679.49;2908111;81;21070;-79
2022/02/13 10:36:10;;;;;;;7.03;6.33;;;;;;;7.17;58.36;100675.23;2912046;81;21072;-79
2022/02/13 10:40:24;;;;;;;8.48;5.75;;;;;;;7.22;57.59;100667.02;2903288;81;21512;-79
2022/02/13 10:44:29;;;;;;;9.25;7.75;;;;;;;7.29;58.11;100664.36;2901189;80;21080;-74
2022/02/13 10:48:31;;;;;;;9.58;7.58;;;;;;;7.33;58.28;100657.92;2903415;81;21638;-73
2022/02/13 10:52:35;;;;;;;8.75;6.10;;;;;;;7.46;57.63;100646.09;2905977;81;21903;-74
2022/02/13 10:56:37;;;;;;;11.33;7.90;;;;;;;7.46;57.58;100626.23;2906216;81;21002;-72
2022/02/13 11:00:39;;;;;;;10.23;6.42;;;;;;;7.54;58.35;100626.61;2906251;81;21528;-68
2022/02/13 11:04:42;;;;;;;10.55;7.25;;;;;;;7.60;56.53;100623.19;2918553;81;21006;-69
2022/02/13 11:09:13;;;;;;;10.30;5.80;;;;;;;7.73;56.94;100616.16;2910921;81;22040;-75
2022/02/13 11:13:16;;;;;;;7.85;6.65;;;;;;;7.79;57.13;100613.11;2902064;80;21023;-76
2022/02/13 11:17:33;;;;;;;8.63;6.05;;;;;;;7.76;55.80;100605.37;2895870;81;21026;-75
2022/02/13 11:21:36;;;;;;;9.00;6.17;;;;;;;7.89;57.08;100597.47;2877041;81;21049;-75
2022/02/13 11:26:06;;;;;;;7.03;4.58;;;;;;;8.01;57.13;100589.18;2903151;81;20997;-73
2022/02/13 11:30:10;;;;;;;6.58;4.45;;;;;;;8.15;58.11;100577.20;2894759;81;21001;-78
2022/02/13 11:34:29;;;;;;;7.15;4.75;;;;;;;8.24;56.54;100572.21;2895301;81;21005;-75
2022/02/13 11:38:48;;;;;;;9.68;4.87;;;;;;;8.28;55.98;100577.70;2890242;81;21002;-76
2022/02/13 11:42:50;;;;;;;6.20;4.75;;;;;;;8.34;54.79;100577.28;2886111;81;21054;-74
2022/02/13 11:46:55;;;;;;;5.78;3.92;;;;;;;8.36;55.54;100574.54;2897811;81;21013;-76
2022/02/13 11:50:57;;;;;;;5.83;4.60;;;;;;;8.38;54.63;100562.86;2883246;81;21388;-73
2022/02/13 11:54:59;;;;;;;4.92;4.45;;;;;;;8.42;54.08;100545.78;2906592;81;21514;-74
2022/02/13 11:59:01;;;;;;;5.83;5.17;;;;;;;8.38;53.80;100542.98;2902933;80;20988;-78
2022/02/13 12:03:19;;;;;;;6.55;5.45;;;;;;;8.48;54.18;100545.84;2899595;80;21874;-79
2022/02/13 12:07:23;;;;;;;10.13;6.37;;;;;;;8.51;54.84;100538.20;2902111;80;21034;-79
2022/02/13 12:11:30;;;;;;;9.65;7.30;;;;;;;8.63;55.15;100542.63;2924806;80;21113;-74
2022/02/13 12:15:32;;;;;;;8.93;5.65;;;;;;;8.72;55.15;100541.14;2912008;81;20977;-79
2022/02/13 12:19:41;;;;;;;8.90;5.85;;;;;;;8.73;53.80;100529.57;2912235;81;20994;-78
2022/02/13 12:23:43;;;;;;;17.52;6.22;;;;;;;8.76;54.11;100520.56;2907181;81;21072;-78
2022/02/13 12:27:46;;;;;;;10.95;6.35;;;;;;;8.91;54.49;100516.83;2907708;81;20994;-77
2022/02/13 12:31:53;;;;;;;10.23;6.05;;;;;;;9.04;54.26;100506.18;2906297;81;21005;-76
2022/02/13 12:35:57;;;;;;;6.25;5.05;;;;;;;8.98;53.33;100508.79;2893786;81;21030;-76
2022/02/13 12:39:59;;;;;;;6.95;5.60;;;;;;;9.08;52.73;100505.49;2918415;80;21052;-76
2022/02/13 12:44:00;;;;;;;8.95;6.53;;;;;;;9.12;53.38;100502.98;2931599;80;21570;-76
2022/02/13 12:48:09;;;;;;;5.95;5.03;;;;;;;9.21;54.26;100503.62;2921061;81;21268;-77
2022/02/13 12:52:12;;;;;;;12.15;6.70;;;;;;;9.20;52.99;100491.31;2920809;81;21005;-77
2022/02/13 12:56:15;;;;;;;6.92;5.47;;;;;;;9.11;52.74;100482.70;2920516;81;21041;-73
2022/02/13 13:00:23;;;;;;;8.08;6.12;;;;;;;9.08;52.89;100478.95;2921647;80;21052;-72
2022/02/13 13:04:25;;;;;;;15.38;6.47;;;;;;;9.07;53.27;100470.13;2919743;80;21640;-74
2022/02/13 13:08:31;;;;;;;7.75;5.60;;;;;;;9.12;53.14;100467.15;2911752;81;21034;-73
2022/02/13 13:12:33;;;;;;;5.97;5.33;;;;;;;9.18;53.32;100462.70;2903057;80;21049;-82
2022/02/13 13:16:34;;;;;;;9.70;6.53;;;;;;;9.14;52.49;100464.77;2919318;81;21060;-77
2022/02/13 13:20:39;;;;;;;8.95;5.78;;;;;;;9.19;53.26;100460.42;2919023;81;21095;-74
2022/02/13 13:24:47;;;;;;;7.00;5.37;;;;;;;9.14;52.72;100458.13;2920534;81;21009;-75
2022/02/13 13:28:48;;;;;;;8.83;7.10;;;;;;;9.14;53.26;100452.81;2919110;81;20966;-75
2022/02/13 13:32:50;;;;;;;12.07;6.47;;;;;;;9.10;53.38;100451.82;2919213;81;21556;-75
2022/02/13 13:36:52;;;;;;;7.08;5.28;;;;;;;9.07;52.64;100453.38;2919657;81;20989;-75
2022/02/13 13:41:04;;;;;;;10.72;7.12;;;;;;;9.05;53.19;100446.01;2919906;81;21030;-74
2022/02/13 13:45:12;;;;;;;12.93;6.80;;;;;;;9.14;54.23;100440.02;2908560;81;20997;-76
2022/02/13 13:49:15;;;;;;;7.42;6.70;;;;;;;9.21;54.40;100440.41;2914817;81;21534;-77
2022/02/13 13:53:19;;;;;;;6.17;4.78;;;;;;;9.27;53.97;100439.48;2916201;81;20978;-76
2022/02/13 13:57:21;;;;;;;6.78;4.92;;;;;;;9.30;53.67;100429.10;2914130;81;21044;-75
2022/02/13 14:01:23;;;;;;;10.15;5.22;;;;;;;9.27;52.11;100429.34;2912564;81;21092;-74
2022/02/13 14:05:32;;;;;;;6.85;6.00;;;;;;;9.22;52.09;100440.28;2892875;81;21084;-73
2022/02/13 14:09:34;;;;;;;10.78;4.67;;;;;;;9.24;52.48;100437.53;2911440;81;21010;-74
2022/02/13 14:13:37;;;;;;;7.87;4.70;;;;;;;9.21;52.61;100438.59;2901663;81;21618;-72
2022/02/13 14:17:38;;;;;;;4.80;4.30;;;;;;;9.14;53.23;100442.67;2912292;81;21676;-72
2022/02/13 14:21:40;;;;;;;10.85;4.78;;;;;;;9.15;53.25;100437.72;2899239;81;21026;-73
2022/02/13 14:25:41;;;;;;;6.35;4.85;;;;;;;8.95;52.00;100421.45;2911496;81;21100;-73
2022/02/13 14:29:43;;;;;;;5.87;4.35;;;;;;;8.93;52.56;100423.37;2911040;81;21041;-72
2022/02/13 14:33:45;;;;;;;4.33;3.33;;;;;;;8.90;52.67;100439.53;2911554;81;21701;-73
2022/02/13 14:37:49;;;;;;;7.92;5.15;;;;;;;8.81;53.07;100436.20;2911743;81;20985;-72
2022/02/13 14:41:50;;;;;;;6.25;3.92;;;;;;;8.83;53.79;100442.23;2915608;80;21089;-73
2022/02/13 14:45:51;;;;;;;5.95;4.92;;;;;;;8.80;54.01;100439.81;2918867;81;21072;-73
2022/02/13 14:49:53;;;;;;;7.80;6.42;;;;;;;8.76;54.30;100442.32;2917772;81;21053;-73
2022/02/13 14:53:56;;;;;;;7.87;5.95;;;;;;;8.70;54.28;100432.53;2917790;81;21064;-73
2022/02/13 14:57:57;;;;;;;7.15;3.98;;;;;;;8.71;54.59;100438.20;2918983;81;20990;-72
2022/02/13 15:01:59;;;;;;;9.05;7.17;;;;;;;8.64;54.78;100433.44;2917813;81;21017;-73
2022/02/13 15:06:00;;;;;;;11.08;6.17;;;;;;;8.64;54.97;100430.30;2918985;81;21119;-72
2022/02/13 15:10:04;;;;;;;10.68;7.75;;;;;;;8.53;54.77;100428.91;2919377;81;20982;-73
2022/02/13 15:14:06;;;;;;;6.90;6.25;;;;;;;8.43;55.93;100422.88;2914949;81;20997;-73
2022/02/13 15:18:08;;;;;;;12.13;6.50;;;;;;;8.37;55.72;100422.49;2918903;81;21006;-76
2022/02/13 15:22:09;;;;;;;12.03;7.12;;;;;;;8.24;57.21;100418.50;2917415;81;21029;-79
2022/02/13 15:26:11;;;;;;;8.10;5.67;;;;;;;8.08;57.08;100412.98;2918607;81;20993;-75
2022/02/13 15:30:13;;;;;;;12.88;6.40;;;;;;;7.95;57.18;100406.82;2917706;81;21010;-76
2022/02/13 15:34:15;;;;;;;7.10;5.70;;;;;;;7.79;57.59;100402.57;2918893;81;20978;-76
2022/02/13 15:38:16;;;;;;;10.82;6.83;;;;;;;7.64;57.49;100410.23;2918565;80;20966;-76
2022/02/13 15:42:18;;;;;;;7.35;4.92;;;;;;;7.48;57.87;100403.34;2914588;80;21072;-76
2022/02/13 15:46:19;;;;;;;11.68;6.05;;;;;;;7.33;58.68;100400.39;2918454;81;21593;-75
2022/02/13 15:50:21;;;;;;;6.00;5.50;;;;;;;7.20;58.71;100398.55;2918516;80;21077;-77
2022/02/13 15:54:24;;;;;;;9.00;7.45;;;;;;;7.08;58.63;100392.77;2919003;80;21585;-75
2022/02/13 15:58:25;;;;;;;10.30;8.15;;;;;;;6.90;58.74;100390.82;2918051;81;21059;-74
2022/02/13 16:02:27;;;;;;;11.80;7.50;;;;;;;6.75;59.14;100385.56;2917091;81;21008;-76
2022/02/13 16:06:29;;;;;;;15.38;11.03;;;;;;;6.60;59.11;100380.80;2917643;81;21030;-75
2022/02/13 16:10:30;;;;;;;26.73;16.62;;;;;;;6.53;59.15;100385.63;2917587;81;21047;-76
2022/02/13 16:14:32;;;;;;;22.22;14.75;;;;;;;6.40;58.83;100376.30;2917369;81;21008;-76
2022/02/13 16:18:34;;;;;;;17.20;11.05;;;;;;;6.31;59.36;100375.58;2917793;80;21282;-76
2022/02/13 16:22:35;;;;;;;15.80;9.90;;;;;;;6.24;59.52;100359.71;2918076;80;21052;-76
2022/02/13 16:26:39;;;;;;;14.10;9.68;;;;;;;6.07;59.92;100369.53;2916995;81;21266;-76
2022/02/13 16:30:41;;;;;;;16.97;11.70;;;;;;;6.06;59.95;100374.92;2918349;81;21103;-76
2022/02/13 16:34:44;;;;;;;19.37;12.58;;;;;;;5.95;60.14;100365.82;2918450;80;21005;-76
2022/02/13 16:38:51;;;;;;;14.93;9.65;;;;;;;5.89;60.50;100366.20;2917109;81;21570;-76
2022/02/13 16:42:49;;;;;;;12.45;9.00;;;;;;;5.86;60.81;100361.12;2909500;80;21093;-75
2022/02/13 16:46:52;;;;;;;15.65;8.78;;;;;;;5.80;60.93;100361.50;2905796;81;21558;-76
2022/02/13 16:50:53;;;;;;;14.63;9.73;;;;;;;5.70;61.52;100362.53;2910197;81;21585;-73
2022/02/13 16:54:55;;;;;;;18.35;11.90;;;;;;;5.65;61.92;100357.52;2910371;81;21024;-73
2022/02/13 16:58:58;;;;;;;10.13;7.42;;;;;;;5.60;62.07;100360.05;2911241;81;21009;-73
2022/02/13 17:03:00;;;;;;;11.88;8.58;;;;;;;5.57;62.24;100352.70;2918604;80;20994;-73
2022/02/13 17:07:02;;;;;;;14.45;9.78;;;;;;;5.52;62.14;100354.77;2895108;80;21578;-78
2022/02/13 17:11:03;;;;;;;20.50;11.35;;;;;;;5.47;62.50;100346.26;2837054;81;21034;-74
2022/02/13 17:15:08;;;;;;;19.60;13.40;;;;;;;5.44;62.89;100349.08;2786258;83;21572;-74
2022/02/13 17:19:10;;;;;;;18.42;11.48;;;;;;;5.41;63.40;100351.91;2814492;84;21050;-74
2022/02/13 17:23:14;;;;;;;24.47;13.65;;;;;;;5.43;63.27;100344.75;2874067;82;21002;-74
2022/02/13 17:27:15;;;;;;;20.45;13.10;;;;;;;5.45;63.41;100346.82;2813545;84;21031;-71
2022/02/13 17:31:17;;;;;;;26.55;16.55;;;;;;;5.46;63.18;100344.56;2814081;84;20991;-70
2022/02/13 17:35:18;;;;;;;22.30;14.63;;;;;;;5.49;63.21;100339.58;2813665;84;21143;-70
2022/02/13 17:39:20;;;;;;;17.20;13.45;;;;;;;5.46;63.29;100337.97;2814520;84;21071;-71
2022/02/13 17:43:22;;;;;;;16.97;10.40;;;;;;;5.39;63.26;100339.28;2813174;84;21051;-69
2022/02/13 17:47:24;;;;;;;25.10;15.10;;;;;;;5.39;63.47;100339.28;2856306;83;21043;-71
2022/02/13 17:51:26;;;;;;;31.65;16.23;;;;;;;5.43;63.39;100339.02;2849288;83;21491;-71
2022/02/13 17:55:28;;;;;;;17.12;10.43;;;;;;;5.42;63.62;100339.09;2840844;83;22285;-71
2022/02/13 17:59:30;;;;;;;24.23;13.43;;;;;;;5.33;64.43;100333.06;2834684;83;21084;-72
2022/02/13 18:03:32;;;;;;;23.32;13.35;;;;;;;5.31;64.21;100320.44;2848679;83;21014;-72
2022/02/13 18:07:34;;;;;;;18.10;13.45;;;;;;;5.26;64.58;100325.48;2834668;83;21588;-72
2022/02/13 18:11:35;;;;;;;31.75;19.32;;;;;;;5.19;64.96;100324.16;2840407;82;21015;-72
2022/02/13 18:15:38;;;;;;;28.77;14.87;;;;;;;5.25;65.16;100325.11;2813515;84;21616;-72
2022/02/13 18:19:40;;;;;;;21.60;14.05;;;;;;;5.21;65.58;100313.50;2855813;83;21090;-73
2022/02/13 18:23:41;;;;;;;20.68;13.28;;;;;;;5.19;65.79;100312.30;2854646;83;21300;-72
2022/02/13 18:27:43;;;;;;;20.25;12.23;;;;;;;5.13;66.26;100312.66;2827623;83;21079;-72
2022/02/13 18:31:44;;;;;;;21.85;12.43;;;;;;;5.10;66.76;100306.23;2850603;82;21379;-72
2022/02/13 18:35:48;;;;;;;20.23;13.72;;;;;;;5.08;66.93;100300.20;2858226;82;21138;-72
2022/02/13 18:39:50;;;;;;;26.52;15.70;;;;;;;5.05;67.02;100299.93;2854970;83;21035;-72
2022/02/13 18:43:51;;;;;;;18.23;12.40;;;;;;;4.91;67.59;100294.12;2864469;82;21122;-72
2022/02/13 18:47:53;;;;;;;22.62;12.82;;;;;;;4.92;67.56;100296.30;2846388;82;21049;-72
2022/02/13 18:51:55;;;;;;;14.83;10.48;;;;;;;4.94;67.63;100294.42;2829321;83;21011;-73
2022/02/13 18:55:57;;;;;;;12.95;9.48;;;;;;;4.99;67.45;100282.67;2875749;82;21569;-72
2022/02/13 18:59:59;;;;;;;16.00;11.35;;;;;;;4.98;67.51;100288.89;2827385;84;21110;-73